Forney's Hourly Summary for Tuesday, July 10, 2018
Hour Temp
(f)
RH
(%)
Solar Rad.
(MJ/m2)
Rainfall
(in)
Wind
(mph)
7/10/2018 12:00 AM 76 82 0 0 0.56
7/10/2018 1:00 AM 76 82 0 0 0.69
7/10/2018 2:00 AM 74 84 0 0 0.76
7/10/2018 3:00 AM 74 88 0 0 0.81
7/10/2018 4:00 AM 73 91 0 0 1.52
7/10/2018 5:00 AM 73 97 0 0 0.28
7/10/2018 6:00 AM 72 99 0 0 0.01
7/10/2018 7:00 AM 72 98 0.02 0 0
7/10/2018 8:00 AM 73 93 0.12 0 0.47
7/10/2018 9:00 AM 76 75 1.07 0 0.79
7/10/2018 10:00 AM 79 69 1.32 0 3.22
7/10/2018 11:00 AM 84 58 2.43 0 2.56
7/10/2018 12:00 PM 87 55 1.72 0 1.95
7/10/2018 1:00 PM 88 51 1.58 0 1.8
7/10/2018 2:00 PM 89 49 1.74 0 1.71
7/10/2018 3:00 PM 91 45 1.85 0 3.03
7/10/2018 4:00 PM 87 53 1.15 0 4.76
7/10/2018 5:00 PM 85 52 0.34 0 3.76
7/10/2018 6:00 PM 81 67 0.4 0 1.82
7/10/2018 7:00 PM 83 60 0.22 0 1.24
7/10/2018 8:00 PM 83 59 0.19 0 0.9
7/10/2018 9:00 PM 83 59 0.03 0 1.85
7/10/2018 10:00 PM 81 67 0 0 0.28
7/10/2018 11:00 PM 79 72 0 0 0.14
Data Summary 79 71 14.18 0.00 1.45